sensor_id;sensor_type;location;lat;lon;timestamp;temperature;humidity
75683;HTU21D;64295;44.772;39.872;2023-08-01T00:02:14;22.32;59.04
75683;HTU21D;64295;44.772;39.872;2023-08-01T00:04:40;22.23;59.28
75683;HTU21D;64295;44.772;39.872;2023-08-01T00:07:06;22.23;59.35
75683;HTU21D;64295;44.772;39.872;2023-08-01T00:09:31;22.20;59.41
75683;HTU21D;64295;44.772;39.872;2023-08-01T00:12:00;22.19;59.46
75683;HTU21D;64295;44.772;39.872;2023-08-01T00:14:25;22.25;59.32
75683;HTU21D;64295;44.772;39.872;2023-08-01T00:16:51;22.35;59.15
75683;HTU21D;64295;44.772;39.872;2023-08-01T00:19:18;22.39;59.06
75683;HTU21D;64295;44.772;39.872;2023-08-01T00:21:44;22.41;59.08
75683;HTU21D;64295;44.772;39.872;2023-08-01T00:24:10;22.35;59.28
75683;HTU21D;64295;44.772;39.872;2023-08-01T00:26:36;22.25;59.55
75683;HTU21D;64295;44.772;39.872;2023-08-01T00:29:02;22.20;59.75
75683;HTU21D;64295;44.772;39.872;2023-08-01T00:31:27;22.19;59.80
75683;HTU21D;64295;44.772;39.872;2023-08-01T00:33:55;22.22;59.73
75683;HTU21D;64295;44.772;39.872;2023-08-01T00:36:21;22.25;59.66
75683;HTU21D;64295;44.772;39.872;2023-08-01T00:38:47;22.24;59.69
75683;HTU21D;64295;44.772;39.872;2023-08-01T00:41:14;22.22;59.78
75683;HTU21D;64295;44.772;39.872;2023-08-01T00:43:40;22.20;59.83
75683;HTU21D;64295;44.772;39.872;2023-08-01T00:46:06;22.17;59.91
75683;HTU21D;64295;44.772;39.872;2023-08-01T00:48:33;22.14;59.94
75683;HTU21D;64295;44.772;39.872;2023-08-01T00:51:03;22.13;59.99
75683;HTU21D;64295;44.772;39.872;2023-08-01T00:53:30;22.14;59.96
75683;HTU21D;64295;44.772;39.872;2023-08-01T00:55:58;22.13;59.99
75683;HTU21D;64295;44.772;39.872;2023-08-01T00:58:24;22.11;60.06
75683;HTU21D;64295;44.772;39.872;2023-08-01T01:00:50;22.12;60.06
75683;HTU21D;64295;44.772;39.872;2023-08-01T01:03:17;22.03;60.35
75683;HTU21D;64295;44.772;39.872;2023-08-01T01:06:02;21.96;60.57
75683;HTU21D;64295;44.772;39.872;2023-08-01T01:08:32;21.93;60.54
75683;HTU21D;64295;44.772;39.872;2023-08-01T01:10:57;21.92;60.62
75683;HTU21D;64295;44.772;39.872;2023-08-01T01:13:23;21.95;60.55
75683;HTU21D;64295;44.772;39.872;2023-08-01T01:15:49;21.98;60.50
75683;HTU21D;64295;44.772;39.872;2023-08-01T01:18:15;21.99;60.49
75683;HTU21D;64295;44.772;39.872;2023-08-01T01:20:41;21.99;60.47
75683;HTU21D;64295;44.772;39.872;2023-08-01T01:23:08;22.04;60.44
75683;HTU21D;64295;44.772;39.872;2023-08-01T01:25:35;22.08;60.38
75683;HTU21D;64295;44.772;39.872;2023-08-01T01:28:04;22.08;60.41
75683;HTU21D;64295;44.772;39.872;2023-08-01T01:30:31;22.09;60.40
75683;HTU21D;64295;44.772;39.872;2023-08-01T01:33:00;22.09;60.41
75683;HTU21D;64295;44.772;39.872;2023-08-01T01:35:26;22.08;60.46
75683;HTU21D;64295;44.772;39.872;2023-08-01T01:37:52;22.05;60.53
75683;HTU21D;64295;44.772;39.872;2023-08-01T01:40:18;22.02;60.63
75683;HTU21D;64295;44.772;39.872;2023-08-01T01:42:44;21.94;60.80
75683;HTU21D;64295;44.772;39.872;2023-08-01T01:45:10;21.90;60.89
75683;HTU21D;64295;44.772;39.872;2023-08-01T01:47:36;21.85;60.99
75683;HTU21D;64295;44.772;39.872;2023-08-01T01:50:02;21.77;61.25
75683;HTU21D;64295;44.772;39.872;2023-08-01T01:52:28;21.67;61.40
75683;HTU21D;64295;44.772;39.872;2023-08-01T01:54:54;21.67;61.38
75683;HTU21D;64295;44.772;39.872;2023-08-01T01:57:20;21.68;61.35
75683;HTU21D;64295;44.772;39.872;2023-08-01T01:59:46;21.69;61.36
75683;HTU21D;64295;44.772;39.872;2023-08-01T02:02:12;21.69;61.34
75683;HTU21D;64295;44.772;39.872;2023-08-01T02:04:38;21.73;61.28
75683;HTU21D;64295;44.772;39.872;2023-08-01T02:07:04;21.76;61.25
75683;HTU21D;64295;44.772;39.872;2023-08-01T02:09:31;21.78;61.21
75683;HTU21D;64295;44.772;39.872;2023-08-01T02:11:57;21.82;61.18
75683;HTU21D;64295;44.772;39.872;2023-08-01T02:14:23;21.84;61.17
75683;HTU21D;64295;44.772;39.872;2023-08-01T02:16:49;21.87;61.18
75683;HTU21D;64295;44.772;39.872;2023-08-01T02:19:15;21.89;61.21
75683;HTU21D;64295;44.772;39.872;2023-08-01T02:21:41;21.87;61.27
75683;HTU21D;64295;44.772;39.872;2023-08-01T02:24:06;21.84;61.35
75683;HTU21D;64295;44.772;39.872;2023-08-01T02:26:32;21.81;61.44
75683;HTU21D;64295;44.772;39.872;2023-08-01T02:28:58;21.77;61.50
75683;HTU21D;64295;44.772;39.872;2023-08-01T02:31:24;21.78;61.51
75683;HTU21D;64295;44.772;39.872;2023-08-01T02:33:50;21.80;61.46
75683;HTU21D;64295;44.772;39.872;2023-08-01T02:36:16;21.81;61.43
75683;HTU21D;64295;44.772;39.872;2023-08-01T02:38:42;21.82;61.41
75683;HTU21D;64295;44.772;39.872;2023-08-01T02:41:08;21.79;61.47
75683;HTU21D;64295;44.772;39.872;2023-08-01T02:43:33;21.78;61.58
75683;HTU21D;64295;44.772;39.872;2023-08-01T02:46:02;21.69;61.84
75683;HTU21D;64295;44.772;39.872;2023-08-01T02:48:28;21.62;62.08
75683;HTU21D;64295;44.772;39.872;2023-08-01T02:50:54;21.61;62.19
75683;HTU21D;64295;44.772;39.872;2023-08-01T02:53:19;21.61;62.24
75683;HTU21D;64295;44.772;39.872;2023-08-01T02:55:45;21.65;62.13
75683;HTU21D;64295;44.772;39.872;2023-08-01T02:58:14;21.69;62.12
75683;HTU21D;64295;44.772;39.872;2023-08-01T03:00:40;21.68;62.28
75683;HTU21D;64295;44.772;39.872;2023-08-01T03:03:06;21.65;62.38
75683;HTU21D;64295;44.772;39.872;2023-08-01T03:05:35;21.66;62.39
75683;HTU21D;64295;44.772;39.872;2023-08-01T03:08:01;21.65;62.48
75683;HTU21D;64295;44.772;39.872;2023-08-01T03:10:26;21.70;62.50
75683;HTU21D;64295;44.772;39.872;2023-08-01T03:12:52;21.69;62.67
75683;HTU21D;64295;44.772;39.872;2023-08-01T03:15:19;21.70;62.73
75683;HTU21D;64295;44.772;39.872;2023-08-01T03:17:45;21.75;62.79
75683;HTU21D;64295;44.772;39.872;2023-08-01T03:20:11;21.75;62.86
75683;HTU21D;64295;44.772;39.872;2023-08-01T03:22:38;21.75;63.07
75683;HTU21D;64295;44.772;39.872;2023-08-01T03:25:06;21.75;63.21
75683;HTU21D;64295;44.772;39.872;2023-08-01T03:27:33;21.74;63.29
75683;HTU21D;64295;44.772;39.872;2023-08-01T03:29:59;21.76;63.40
75683;HTU21D;64295;44.772;39.872;2023-08-01T03:32:25;21.75;63.56
75683;HTU21D;64295;44.772;39.872;2023-08-01T03:34:51;21.78;63.50
75683;HTU21D;64295;44.772;39.872;2023-08-01T03:37:18;21.88;63.34
75683;HTU21D;64295;44.772;39.872;2023-08-01T03:39:44;21.97;63.21
75683;HTU21D;64295;44.772;39.872;2023-08-01T03:42:10;22.07;63.11
75683;HTU21D;64295;44.772;39.872;2023-08-01T03:44:36;22.16;63.01
75683;HTU21D;64295;44.772;39.872;2023-08-01T03:47:02;22.28;62.89
75683;HTU21D;64295;44.772;39.872;2023-08-01T03:49:28;22.37;62.81
75683;HTU21D;64295;44.772;39.872;2023-08-01T03:51:54;22.42;62.82
75683;HTU21D;64295;44.772;39.872;2023-08-01T03:54:19;22.46;62.82
75683;HTU21D;64295;44.772;39.872;2023-08-01T03:56:47;22.50;62.79
75683;HTU21D;64295;44.772;39.872;2023-08-01T03:59:13;22.56;62.76
75683;HTU21D;64295;44.772;39.872;2023-08-01T04:01:41;22.67;62.59
75683;HTU21D;64295;44.772;39.872;2023-08-01T04:04:08;22.76;62.53
75683;HTU21D;64295;44.772;39.872;2023-08-01T04:06:34;22.78;62.70
75683;HTU21D;64295;44.772;39.872;2023-08-01T04:09:00;22.81;62.77
75683;HTU21D;64295;44.772;39.872;2023-08-01T04:11:26;22.84;62.76
75683;HTU21D;64295;44.772;39.872;2023-08-01T04:13:52;22.94;62.73
75683;HTU21D;64295;44.772;39.872;2023-08-01T04:16:19;22.98;62.72
75683;HTU21D;64295;44.772;39.872;2023-08-01T04:18:45;23.01;62.76
75683;HTU21D;64295;44.772;39.872;2023-08-01T04:21:14;23.06;62.92
75683;HTU21D;64295;44.772;39.872;2023-08-01T04:23:40;23.08;62.50
75683;HTU21D;64295;44.772;39.872;2023-08-01T04:26:06;23.18;62.36
75683;HTU21D;64295;44.772;39.872;2023-08-01T04:28:33;23.25;62.46
75683;HTU21D;64295;44.772;39.872;2023-08-01T04:30:59;23.28;62.63
75683;HTU21D;64295;44.772;39.872;2023-08-01T04:33:25;23.28;62.95
75683;HTU21D;64295;44.772;39.872;2023-08-01T04:35:51;23.31;63.05
75683;HTU21D;64295;44.772;39.872;2023-08-01T04:38:17;23.36;63.23
75683;HTU21D;64295;44.772;39.872;2023-08-01T04:40:43;23.40;63.27
75683;HTU21D;64295;44.772;39.872;2023-08-01T04:43:09;23.46;63.25
75683;HTU21D;64295;44.772;39.872;2023-08-01T04:45:36;23.56;63.12
75683;HTU21D;64295;44.772;39.872;2023-08-01T04:48:02;23.69;63.11
75683;HTU21D;64295;44.772;39.872;2023-08-01T04:50:28;23.79;62.89
75683;HTU21D;64295;44.772;39.872;2023-08-01T04:52:54;23.90;62.63
75683;HTU21D;64295;44.772;39.872;2023-08-01T04:55:20;24.03;62.55
75683;HTU21D;64295;44.772;39.872;2023-08-01T04:57:45;24.11;62.49
75683;HTU21D;64295;44.772;39.872;2023-08-01T05:00:12;24.15;62.46
75683;HTU21D;64295;44.772;39.872;2023-08-01T05:02:38;24.23;62.33
75683;HTU21D;64295;44.772;39.872;2023-08-01T05:05:04;24.36;62.12
75683;HTU21D;64295;44.772;39.872;2023-08-01T05:07:30;24.49;61.81
75683;HTU21D;64295;44.772;39.872;2023-08-01T05:09:56;24.61;61.58
75683;HTU21D;64295;44.772;39.872;2023-08-01T05:12:22;24.74;61.30
75683;HTU21D;64295;44.772;39.872;2023-08-01T05:14:48;24.86;61.03
75683;HTU21D;64295;44.772;39.872;2023-08-01T05:17:14;24.95;60.80
75683;HTU21D;64295;44.772;39.872;2023-08-01T05:19:40;25.06;60.57
75683;HTU21D;64295;44.772;39.872;2023-08-01T05:22:06;25.20;60.22
75683;HTU21D;64295;44.772;39.872;2023-08-01T05:24:31;25.29;59.96
75683;HTU21D;64295;44.772;39.872;2023-08-01T05:26:57;25.34;59.89
75683;HTU21D;64295;44.772;39.872;2023-08-01T05:29:23;25.43;59.77
75683;HTU21D;64295;44.772;39.872;2023-08-01T05:31:49;25.52;59.72
75683;HTU21D;64295;44.772;39.872;2023-08-01T05:34:15;25.56;59.70
75683;HTU21D;64295;44.772;39.872;2023-08-01T05:36:41;25.60;59.90
75683;HTU21D;64295;44.772;39.872;2023-08-01T05:39:07;25.63;60.02
75683;HTU21D;64295;44.772;39.872;2023-08-01T05:41:33;25.69;59.94
75683;HTU21D;64295;44.772;39.872;2023-08-01T05:43:58;25.81;59.95
75683;HTU21D;64295;44.772;39.872;2023-08-01T05:46:24;25.90;59.93
75683;HTU21D;64295;44.772;39.872;2023-08-01T05:48:51;26.03;59.96
75683;HTU21D;64295;44.772;39.872;2023-08-01T05:51:17;26.09;60.06
75683;HTU21D;64295;44.772;39.872;2023-08-01T05:53:43;26.12;60.40
75683;HTU21D;64295;44.772;39.872;2023-08-01T05:56:09;26.09;60.54
75683;HTU21D;64295;44.772;39.872;2023-08-01T05:58:35;26.10;60.54
75683;HTU21D;64295;44.772;39.872;2023-08-01T06:01:01;26.17;60.39
75683;HTU21D;64295;44.772;39.872;2023-08-01T06:03:27;26.30;60.16
75683;HTU21D;64295;44.772;39.872;2023-08-01T06:05:53;26.43;59.92
75683;HTU21D;64295;44.772;39.872;2023-08-01T06:08:18;26.54;59.77
75683;HTU21D;64295;44.772;39.872;2023-08-01T06:10:45;26.68;59.61
75683;HTU21D;64295;44.772;39.872;2023-08-01T06:13:10;26.83;59.41
75683;HTU21D;64295;44.772;39.872;2023-08-01T06:15:36;26.91;59.31
75683;HTU21D;64295;44.772;39.872;2023-08-01T06:18:02;26.96;59.28
75683;HTU21D;64295;44.772;39.872;2023-08-01T06:20:28;26.97;59.49
75683;HTU21D;64295;44.772;39.872;2023-08-01T06:22:54;26.93;59.73
75683;HTU21D;64295;44.772;39.872;2023-08-01T06:25:20;26.96;59.68
75683;HTU21D;64295;44.772;39.872;2023-08-01T06:27:46;27.02;59.56
75683;HTU21D;64295;44.772;39.872;2023-08-01T06:30:12;27.05;59.53
75683;HTU21D;64295;44.772;39.872;2023-08-01T06:32:38;27.07;59.49
75683;HTU21D;64295;44.772;39.872;2023-08-01T06:35:04;27.09;59.49
75683;HTU21D;64295;44.772;39.872;2023-08-01T06:37:30;27.09;59.41
75683;HTU21D;64295;44.772;39.872;2023-08-01T06:39:58;27.19;59.32
75683;HTU21D;64295;44.772;39.872;2023-08-01T06:42:23;27.28;59.06
75683;HTU21D;64295;44.772;39.872;2023-08-01T06:44:49;27.44;58.80
75683;HTU21D;64295;44.772;39.872;2023-08-01T06:47:15;27.65;58.43
75683;HTU21D;64295;44.772;39.872;2023-08-01T06:49:41;27.81;58.23
75683;HTU21D;64295;44.772;39.872;2023-08-01T06:52:07;27.95;57.98
75683;HTU21D;64295;44.772;39.872;2023-08-01T06:54:33;28.04;57.90
75683;HTU21D;64295;44.772;39.872;2023-08-01T06:56:59;28.17;57.83
75683;HTU21D;64295;44.772;39.872;2023-08-01T06:59:25;28.29;57.64
75683;HTU21D;64295;44.772;39.872;2023-08-01T07:01:51;28.31;57.51
75683;HTU21D;64295;44.772;39.872;2023-08-01T07:04:17;28.18;57.71
75683;HTU21D;64295;44.772;39.872;2023-08-01T07:06:43;28.29;57.63
75683;HTU21D;64295;44.772;39.872;2023-08-01T07:09:09;28.41;57.40
75683;HTU21D;64295;44.772;39.872;2023-08-01T07:11:35;28.43;57.31
75683;HTU21D;64295;44.772;39.872;2023-08-01T07:14:01;28.41;57.30
75683;HTU21D;64295;44.772;39.872;2023-08-01T07:16:27;28.39;57.32
75683;HTU21D;64295;44.772;39.872;2023-08-01T07:18:55;28.34;57.35
75683;HTU21D;64295;44.772;39.872;2023-08-01T07:21:20;28.37;57.35
75683;HTU21D;64295;44.772;39.872;2023-08-01T07:23:46;28.49;57.09
75683;HTU21D;64295;44.772;39.872;2023-08-01T07:26:14;28.58;56.93
75683;HTU21D;64295;44.772;39.872;2023-08-01T07:28:42;28.71;56.67
75683;HTU21D;64295;44.772;39.872;2023-08-01T07:31:07;28.75;56.58
75683;HTU21D;64295;44.772;39.872;2023-08-01T07:33:36;28.92;56.47
75683;HTU21D;64295;44.772;39.872;2023-08-01T07:36:02;29.19;55.95
75683;HTU21D;64295;44.772;39.872;2023-08-01T07:38:28;29.26;55.56
75683;HTU21D;64295;44.772;39.872;2023-08-01T07:40:55;29.32;55.61
75683;HTU21D;64295;44.772;39.872;2023-08-01T07:43:21;29.61;55.09
75683;HTU21D;64295;44.772;39.872;2023-08-01T07:45:47;29.72;54.46
75683;HTU21D;64295;44.772;39.872;2023-08-01T07:48:16;29.58;54.49
75683;HTU21D;64295;44.772;39.872;2023-08-01T07:50:42;29.59;54.82
75683;HTU21D;64295;44.772;39.872;2023-08-01T07:53:07;29.77;54.45
75683;HTU21D;64295;44.772;39.872;2023-08-01T07:55:34;29.90;54.28
75683;HTU21D;64295;44.772;39.872;2023-08-01T07:58:00;30.09;53.87
75683;HTU21D;64295;44.772;39.872;2023-08-01T08:00:26;30.30;53.67
75683;HTU21D;64295;44.772;39.872;2023-08-01T08:02:53;30.50;53.46
75683;HTU21D;64295;44.772;39.872;2023-08-01T08:05:19;30.76;53.01
75683;HTU21D;64295;44.772;39.872;2023-08-01T08:07:45;30.87;52.94
75683;HTU21D;64295;44.772;39.872;2023-08-01T08:10:11;31.07;52.85
75683;HTU21D;64295;44.772;39.872;2023-08-01T08:12:37;31.28;52.42
75683;HTU21D;64295;44.772;39.872;2023-08-01T08:15:03;31.35;52.22
75683;HTU21D;64295;44.772;39.872;2023-08-01T08:17:29;31.24;52.54
75683;HTU21D;64295;44.772;39.872;2023-08-01T08:19:55;31.36;52.59
75683;HTU21D;64295;44.772;39.872;2023-08-01T08:22:21;31.51;51.90
75683;HTU21D;64295;44.772;39.872;2023-08-01T08:24:47;31.26;51.82
75683;HTU21D;64295;44.772;39.872;2023-08-01T08:27:13;31.13;52.36
75683;HTU21D;64295;44.772;39.872;2023-08-01T08:29:39;31.10;51.95
75683;HTU21D;64295;44.772;39.872;2023-08-01T08:32:06;30.96;52.08
75683;HTU21D;64295;44.772;39.872;2023-08-01T08:34:32;31.10;51.72
75683;HTU21D;64295;44.772;39.872;2023-08-01T08:36:58;31.19;51.60
75683;HTU21D;64295;44.772;39.872;2023-08-01T08:39:23;31.28;51.53
75683;HTU21D;64295;44.772;39.872;2023-08-01T08:41:52;31.37;51.37
75683;HTU21D;64295;44.772;39.872;2023-08-01T08:44:18;31.46;51.47
75683;HTU21D;64295;44.772;39.872;2023-08-01T08:46:54;31.64;51.21
75683;HTU21D;64295;44.772;39.872;2023-08-01T08:49:20;31.66;50.98
75683;HTU21D;64295;44.772;39.872;2023-08-01T08:51:48;31.68;50.74
75683;HTU21D;64295;44.772;39.872;2023-08-01T08:54:16;31.68;50.52
75683;HTU21D;64295;44.772;39.872;2023-08-01T08:56:42;31.57;50.27
75683;HTU21D;64295;44.772;39.872;2023-08-01T08:59:09;31.51;50.34
75683;HTU21D;64295;44.772;39.872;2023-08-01T09:01:39;31.59;50.21
75683;HTU21D;64295;44.772;39.872;2023-08-01T09:04:05;31.79;49.82
75683;HTU21D;64295;44.772;39.872;2023-08-01T09:06:39;31.69;49.67
75683;HTU21D;64295;44.772;39.872;2023-08-01T09:09:13;31.71;49.75
75683;HTU21D;64295;44.772;39.872;2023-08-01T09:11:52;31.72;49.59
75683;HTU21D;64295;44.772;39.872;2023-08-01T09:14:19;31.78;49.49
75683;HTU21D;64295;44.772;39.872;2023-08-01T09:16:45;31.70;49.73
75683;HTU21D;64295;44.772;39.872;2023-08-01T09:19:17;31.70;49.98
75683;HTU21D;64295;44.772;39.872;2023-08-01T09:21:43;31.72;50.11
75683;HTU21D;64295;44.772;39.872;2023-08-01T09:27:22;32.44;49.60
75683;HTU21D;64295;44.772;39.872;2023-08-01T09:29:51;32.71;49.04
75683;HTU21D;64295;44.772;39.872;2023-08-01T09:32:16;32.59;48.88
75683;HTU21D;64295;44.772;39.872;2023-08-01T09:34:43;32.60;49.07
75683;HTU21D;64295;44.772;39.872;2023-08-01T09:37:09;32.77;48.95
75683;HTU21D;64295;44.772;39.872;2023-08-01T09:39:35;33.04;48.79
75683;HTU21D;64295;44.772;39.872;2023-08-01T09:42:02;33.32;48.61
75683;HTU21D;64295;44.772;39.872;2023-08-01T09:44:29;33.45;48.37
75683;HTU21D;64295;44.772;39.872;2023-08-01T09:47:03;33.40;48.15
75683;HTU21D;64295;44.772;39.872;2023-08-01T09:49:30;33.30;48.12
75683;HTU21D;64295;44.772;39.872;2023-08-01T09:51:57;33.19;47.63
75683;HTU21D;64295;44.772;39.872;2023-08-01T09:54:23;32.85;48.24
75683;HTU21D;64295;44.772;39.872;2023-08-01T09:56:51;32.79;48.32
75683;HTU21D;64295;44.772;39.872;2023-08-01T09:59:24;32.82;48.52
75683;HTU21D;64295;44.772;39.872;2023-08-01T10:01:52;33.01;48.37
75683;HTU21D;64295;44.772;39.872;2023-08-01T10:04:30;33.18;48.22
75683;HTU21D;64295;44.772;39.872;2023-08-01T10:07:03;33.34;48.29
75683;HTU21D;64295;44.772;39.872;2023-08-01T10:09:33;33.49;48.15
75683;HTU21D;64295;44.772;39.872;2023-08-01T10:12:01;33.52;47.58
75683;HTU21D;64295;44.772;39.872;2023-08-01T10:14:28;33.17;48.19
75683;HTU21D;64295;44.772;39.872;2023-08-01T10:16:54;33.15;48.33
75683;HTU21D;64295;44.772;39.872;2023-08-01T10:19:22;33.26;48.34
75683;HTU21D;64295;44.772;39.872;2023-08-01T10:21:48;33.33;48.15
75683;HTU21D;64295;44.772;39.872;2023-08-01T10:24:14;33.33;48.15
75683;HTU21D;64295;44.772;39.872;2023-08-01T10:26:41;33.41;48.03
75683;HTU21D;64295;44.772;39.872;2023-08-01T10:29:10;33.33;47.73
75683;HTU21D;64295;44.772;39.872;2023-08-01T10:31:36;33.38;47.62
75683;HTU21D;64295;44.772;39.872;2023-08-01T10:34:12;33.32;47.55
75683;HTU21D;64295;44.772;39.872;2023-08-01T10:36:38;33.22;47.86
75683;HTU21D;64295;44.772;39.872;2023-08-01T10:39:04;33.35;47.72
75683;HTU21D;64295;44.772;39.872;2023-08-01T10:41:33;33.43;47.24
75683;HTU21D;64295;44.772;39.872;2023-08-01T10:44:13;33.31;47.28
75683;HTU21D;64295;44.772;39.872;2023-08-01T10:46:46;33.04;47.83
75683;HTU21D;64295;44.772;39.872;2023-08-01T10:49:12;32.93;47.76
75683;HTU21D;64295;44.772;39.872;2023-08-01T10:51:38;33.07;47.63
75683;HTU21D;64295;44.772;39.872;2023-08-01T10:54:03;33.37;47.25
75683;HTU21D;64295;44.772;39.872;2023-08-01T10:56:29;33.55;46.76
75683;HTU21D;64295;44.772;39.872;2023-08-01T10:58:58;33.56;46.48
75683;HTU21D;64295;44.772;39.872;2023-08-01T11:01:24;33.53;46.22
75683;HTU21D;64295;44.772;39.872;2023-08-01T11:03:52;33.42;46.45
75683;HTU21D;64295;44.772;39.872;2023-08-01T11:06:18;33.44;46.52
75683;HTU21D;64295;44.772;39.872;2023-08-01T11:08:44;33.60;46.25
75683;HTU21D;64295;44.772;39.872;2023-08-01T11:11:14;33.74;46.11
75683;HTU21D;64295;44.772;39.872;2023-08-01T11:13:40;33.99;45.84
75683;HTU21D;64295;44.772;39.872;2023-08-01T11:16:06;34.15;45.64
75683;HTU21D;64295;44.772;39.872;2023-08-01T11:18:42;34.30;45.32
75683;HTU21D;64295;44.772;39.872;2023-08-01T11:21:08;34.21;45.08
75683;HTU21D;64295;44.772;39.872;2023-08-01T11:23:34;33.97;45.30
75683;HTU21D;64295;44.772;39.872;2023-08-01T11:26:07;34.01;45.22
75683;HTU21D;64295;44.772;39.872;2023-08-01T11:28:35;34.11;45.27
75683;HTU21D;64295;44.772;39.872;2023-08-01T11:31:01;34.14;45.19
75683;HTU21D;64295;44.772;39.872;2023-08-01T11:33:35;34.26;45.31
75683;HTU21D;64295;44.772;39.872;2023-08-01T11:36:01;34.38;45.05
75683;HTU21D;64295;44.772;39.872;2023-08-01T11:38:30;34.52;44.90
75683;HTU21D;64295;44.772;39.872;2023-08-01T11:40:58;34.65;44.50
75683;HTU21D;64295;44.772;39.872;2023-08-01T11:43:25;34.51;44.31
75683;HTU21D;64295;44.772;39.872;2023-08-01T11:45:55;34.47;44.58
75683;HTU21D;64295;44.772;39.872;2023-08-01T11:48:22;34.56;44.49
75683;HTU21D;64295;44.772;39.872;2023-08-01T11:50:49;34.57;44.40
75683;HTU21D;64295;44.772;39.872;2023-08-01T11:53:23;34.45;44.59
75683;HTU21D;64295;44.772;39.872;2023-08-01T11:55:49;34.32;44.87
75683;HTU21D;64295;44.772;39.872;2023-08-01T11:58:37;34.27;44.89
75683;HTU21D;64295;44.772;39.872;2023-08-01T12:01:08;34.11;44.92
75683;HTU21D;64295;44.772;39.872;2023-08-01T12:03:54;33.88;45.15
75683;HTU21D;64295;44.772;39.872;2023-08-01T12:06:22;33.83;45.43
75683;HTU21D;64295;44.772;39.872;2023-08-01T12:08:51;33.95;45.16
75683;HTU21D;64295;44.772;39.872;2023-08-01T12:13:44;33.62;45.49
75683;HTU21D;64295;44.772;39.872;2023-08-01T12:16:10;33.53;45.55
75683;HTU21D;64295;44.772;39.872;2023-08-01T12:18:38;33.30;45.57
75683;HTU21D;64295;44.772;39.872;2023-08-01T12:21:04;33.12;46.07
75683;HTU21D;64295;44.772;39.872;2023-08-01T12:23:38;33.16;45.86
75683;HTU21D;64295;44.772;39.872;2023-08-01T12:26:07;33.19;45.81
75683;HTU21D;64295;44.772;39.872;2023-08-01T12:28:36;33.22;45.71
75683;HTU21D;64295;44.772;39.872;2023-08-01T12:31:24;33.33;45.62
75683;HTU21D;64295;44.772;39.872;2023-08-01T12:33:52;33.40;45.50
75683;HTU21D;64295;44.772;39.872;2023-08-01T12:36:21;33.32;45.64
75683;HTU21D;64295;44.772;39.872;2023-08-01T12:38:47;33.27;45.61
75683;HTU21D;64295;44.772;39.872;2023-08-01T12:41:13;33.26;45.64
75683;HTU21D;64295;44.772;39.872;2023-08-01T12:43:39;33.32;45.50
75683;HTU21D;64295;44.772;39.872;2023-08-01T12:46:05;33.33;45.38
75683;HTU21D;64295;44.772;39.872;2023-08-01T12:48:31;33.18;45.64
75683;HTU21D;64295;44.772;39.872;2023-08-01T12:50:57;33.14;45.70
75683;HTU21D;64295;44.772;39.872;2023-08-01T12:53:23;33.09;45.66
75683;HTU21D;64295;44.772;39.872;2023-08-01T12:55:52;33.03;45.84
75683;HTU21D;64295;44.772;39.872;2023-08-01T12:58:18;33.04;45.81
75683;HTU21D;64295;44.772;39.872;2023-08-01T13:00:45;33.04;45.67
75683;HTU21D;64295;44.772;39.872;2023-08-01T13:03:11;33.03;45.73
75683;HTU21D;64295;44.772;39.872;2023-08-01T13:05:40;32.90;45.73
75683;HTU21D;64295;44.772;39.872;2023-08-01T13:08:09;32.78;46.02
75683;HTU21D;64295;44.772;39.872;2023-08-01T13:10:37;32.83;46.06
75683;HTU21D;64295;44.772;39.872;2023-08-01T13:13:10;32.83;45.95
75683;HTU21D;64295;44.772;39.872;2023-08-01T13:15:35;32.63;46.22
75683;HTU21D;64295;44.772;39.872;2023-08-01T13:18:15;32.56;46.36
75683;HTU21D;64295;44.772;39.872;2023-08-01T13:20:41;32.59;46.32
75683;HTU21D;64295;44.772;39.872;2023-08-01T13:23:21;32.43;46.55
75683;HTU21D;64295;44.772;39.872;2023-08-01T13:25:50;32.29;46.78
75683;HTU21D;64295;44.772;39.872;2023-08-01T13:28:17;32.18;47.04
75683;HTU21D;64295;44.772;39.872;2023-08-01T13:30:42;32.17;47.09
75683;HTU21D;64295;44.772;39.872;2023-08-01T13:33:11;32.28;46.96
75683;HTU21D;64295;44.772;39.872;2023-08-01T13:35:36;32.23;47.09
75683;HTU21D;64295;44.772;39.872;2023-08-01T13:38:02;32.24;47.15
75683;HTU21D;64295;44.772;39.872;2023-08-01T13:40:32;32.17;47.30
75683;HTU21D;64295;44.772;39.872;2023-08-01T13:46:21;31.90;47.84
75683;HTU21D;64295;44.772;39.872;2023-08-01T13:48:53;31.80;47.93
75683;HTU21D;64295;44.772;39.872;2023-08-01T13:51:19;31.76;48.03
75683;HTU21D;64295;44.772;39.872;2023-08-01T13:53:45;31.71;48.28
75683;HTU21D;64295;44.772;39.872;2023-08-01T13:56:12;31.64;48.59
75683;HTU21D;64295;44.772;39.872;2023-08-01T13:58:38;31.57;48.77
75683;HTU21D;64295;44.772;39.872;2023-08-01T14:01:06;31.54;48.87
75683;HTU21D;64295;44.772;39.872;2023-08-01T14:03:36;31.54;48.83
75683;HTU21D;64295;44.772;39.872;2023-08-01T14:06:07;31.63;48.71
75683;HTU21D;64295;44.772;39.872;2023-08-01T14:08:33;31.61;48.66
75683;HTU21D;64295;44.772;39.872;2023-08-01T14:11:05;31.57;48.73
75683;HTU21D;64295;44.772;39.872;2023-08-01T14:13:31;31.50;48.93
75683;HTU21D;64295;44.772;39.872;2023-08-01T14:15:57;31.42;49.05
75683;HTU21D;64295;44.772;39.872;2023-08-01T14:18:24;31.43;49.08
75683;HTU21D;64295;44.772;39.872;2023-08-01T14:20:49;31.38;49.20
75683;HTU21D;64295;44.772;39.872;2023-08-01T14:23:15;31.31;49.33
75683;HTU21D;64295;44.772;39.872;2023-08-01T14:25:41;31.11;49.75
75683;HTU21D;64295;44.772;39.872;2023-08-01T14:28:07;31.01;49.94
75683;HTU21D;64295;44.772;39.872;2023-08-01T14:30:33;30.99;50.01
75683;HTU21D;64295;44.772;39.872;2023-08-01T14:33:04;30.98;50.01
75683;HTU21D;64295;44.772;39.872;2023-08-01T14:35:31;30.91;50.14
75683;HTU21D;64295;44.772;39.872;2023-08-01T14:37:57;30.93;50.14
75683;HTU21D;64295;44.772;39.872;2023-08-01T14:40:23;31.00;49.95
75683;HTU21D;64295;44.772;39.872;2023-08-01T14:42:49;31.09;49.81
75683;HTU21D;64295;44.772;39.872;2023-08-01T14:45:15;31.16;49.73
75683;HTU21D;64295;44.772;39.872;2023-08-01T14:47:42;31.24;49.63
75683;HTU21D;64295;44.772;39.872;2023-08-01T14:50:10;31.25;49.66
75683;HTU21D;64295;44.772;39.872;2023-08-01T14:52:36;31.19;49.76
75683;HTU21D;64295;44.772;39.872;2023-08-01T14:55:02;31.14;49.89
75683;HTU21D;64295;44.772;39.872;2023-08-01T14:57:28;31.08;49.95
75683;HTU21D;64295;44.772;39.872;2023-08-01T14:59:54;31.07;49.98
75683;HTU21D;64295;44.772;39.872;2023-08-01T15:02:20;31.02;50.13
75683;HTU21D;64295;44.772;39.872;2023-08-01T15:04:51;30.94;50.26
75683;HTU21D;64295;44.772;39.872;2023-08-01T15:07:17;30.91;50.36
75683;HTU21D;64295;44.772;39.872;2023-08-01T15:09:44;30.93;50.28
75683;HTU21D;64295;44.772;39.872;2023-08-01T15:12:11;30.96;50.27